createdAt,value
2023-04-17T00:01:43.245Z,9.42
2023-04-17T00:06:46.527Z,9.45
2023-04-17T00:11:52.970Z,9.47
2023-04-17T00:16:56.668Z,9.47
2023-04-17T00:22:00.268Z,9.48
2023-04-17T00:27:03.501Z,9.52
2023-04-17T00:32:16.824Z,9.52
2023-04-17T00:37:20.256Z,9.49
2023-04-17T00:42:23.802Z,9.50
2023-04-17T00:47:27.766Z,9.51
2023-04-17T00:52:44.261Z,9.51
2023-04-17T00:57:50.778Z,9.53
2023-04-17T01:02:57.961Z,9.54
2023-04-17T01:08:03.772Z,9.57
2023-04-17T01:13:09.070Z,9.60
2023-04-17T01:18:12.997Z,9.60
2023-04-17T01:23:16.579Z,9.60
2023-04-17T01:28:20.172Z,9.58
2023-04-17T01:33:23.960Z,9.59
2023-04-17T01:38:27.389Z,9.58
2023-04-17T01:43:50.492Z,9.57
2023-04-17T01:48:54.527Z,9.56
2023-04-17T01:53:57.851Z,9.56
2023-04-17T01:59:01.566Z,9.56
2023-04-17T02:04:05.566Z,9.56
2023-04-17T02:09:09.825Z,9.57
2023-04-17T02:14:18.206Z,9.57
2023-04-17T02:19:25.116Z,9.57
2023-04-17T02:24:28.647Z,9.56
2023-04-17T02:29:41.812Z,9.55
2023-04-17T02:34:45.554Z,9.51
2023-04-17T02:39:49.807Z,9.49
2023-04-17T02:45:06.577Z,9.48
2023-04-17T02:50:11.228Z,9.50
2023-04-17T02:55:48.472Z,9.48
2023-04-17T03:01:01.554Z,9.43
2023-04-17T03:06:05.945Z,9.31
2023-04-17T03:11:13.026Z,9.22
2023-04-17T03:16:16.995Z,9.11
2023-04-17T03:21:24.089Z,9.00
2023-04-17T03:26:27.930Z,8.90
2023-04-17T03:31:31.933Z,8.86
2023-04-17T03:36:36.446Z,8.89
2023-04-17T03:41:41.025Z,8.91
2023-04-17T03:46:46.550Z,8.99
2023-04-17T03:52:13.692Z,9.07
2023-04-17T03:57:20.706Z,9.14
2023-04-17T04:02:25.836Z,9.17
2023-04-17T04:07:30.790Z,9.21
2023-04-17T04:12:57.479Z,9.24
2023-04-17T04:18:24.436Z,9.27
2023-04-17T04:23:30.857Z,9.30
2023-04-17T04:28:34.471Z,9.34
2023-04-17T04:33:37.871Z,9.34
2023-04-17T04:38:45.743Z,9.35
2023-04-17T04:43:56.551Z,9.34
2023-04-17T04:49:00.556Z,9.36
2023-04-17T04:54:04.836Z,9.39
2023-04-17T04:59:10.299Z,9.41
2023-04-17T05:04:16.022Z,9.43
2023-04-17T05:09:51.350Z,9.44
2023-04-17T05:14:54.856Z,9.47
2023-04-17T05:19:59.177Z,9.52
2023-04-17T05:25:27.746Z,9.55
2023-04-17T05:30:35.252Z,9.58
2023-04-17T05:35:52.914Z,9.62
2023-04-17T05:41:01.809Z,9.69
2023-04-17T05:46:05.325Z,9.74
2023-04-17T05:51:09.331Z,9.80
2023-04-17T05:56:12.743Z,9.89
2023-04-17T06:01:18.271Z,10.15
2023-04-17T06:06:22.095Z,10.35
2023-04-17T06:11:25.781Z,10.33
2023-04-17T06:16:37.288Z,10.39
2023-04-17T06:21:40.997Z,10.78
2023-04-17T06:26:44.413Z,11.34
2023-04-17T06:31:47.793Z,11.67
2023-04-17T06:36:53.660Z,11.83
2023-04-17T06:42:17.410Z,12.11
2023-04-17T06:47:21.088Z,12.07
2023-04-17T06:52:27.182Z,12.05
2023-04-17T06:57:30.731Z,12.11
2023-04-17T07:02:34.327Z,12.11
2023-04-17T07:07:38.048Z,12.11
2023-04-17T07:12:43.971Z,12.02
2023-04-17T07:17:47.386Z,12.00
2023-04-17T07:22:51.181Z,12.36
2023-04-17T07:27:55.171Z,12.51
2023-04-17T07:32:58.862Z,12.63
2023-04-17T07:38:04.118Z,12.68
2023-04-17T07:43:07.434Z,13.08
2023-04-17T07:48:11.186Z,13.41
2023-04-17T07:53:14.777Z,13.43
2023-04-17T07:58:18.329Z,13.43
2023-04-17T08:03:31.931Z,13.44
2023-04-17T08:08:35.484Z,13.56
2023-04-17T08:13:38.770Z,13.67
2023-04-17T08:18:42.239Z,13.69
2023-04-17T08:23:45.784Z,13.54
2023-04-17T08:28:53.836Z,13.53
2023-04-17T08:34:06.528Z,13.55
2023-04-17T08:39:33.194Z,13.40
2023-04-17T08:44:39.777Z,13.32
2023-04-17T08:49:44.107Z,13.36
2023-04-17T08:54:50.981Z,13.42
2023-04-17T08:59:54.827Z,13.54
2023-04-17T09:05:09.797Z,13.51
2023-04-17T09:10:13.142Z,13.47
2023-04-17T09:15:17.246Z,13.54
2023-04-17T09:20:21.259Z,13.62
2023-04-17T09:25:28.344Z,13.72
2023-04-17T09:30:37.433Z,13.66
2023-04-17T09:35:41.046Z,13.59
2023-04-17T09:40:46.949Z,13.73
2023-04-17T09:45:52.503Z,14.00
2023-04-17T09:50:56.994Z,14.15
2023-04-17T09:56:01.755Z,14.26
2023-04-17T10:01:05.932Z,14.28
2023-04-17T10:06:09.730Z,14.20
2023-04-17T10:11:13.802Z,14.16
2023-04-17T10:16:17.223Z,14.19
2023-04-17T10:21:22.721Z,14.15
2023-04-17T10:26:26.049Z,14.13
2023-04-17T10:32:07.669Z,14.16
2023-04-17T10:37:15.562Z,14.26
2023-04-17T10:42:21.111Z,14.60
2023-04-17T10:47:32.229Z,14.99
2023-04-17T10:52:42.016Z,15.18
2023-04-17T10:58:13.204Z,15.38
2023-04-17T11:03:17.526Z,15.43
2023-04-17T11:08:22.541Z,15.38
2023-04-17T11:13:26.009Z,15.38
2023-04-17T11:18:29.709Z,15.40
2023-04-17T11:23:36.410Z,15.50
2023-04-17T11:28:39.834Z,15.65
2023-04-17T11:33:43.441Z,15.78
2023-04-17T11:38:48.588Z,15.93
2023-04-17T11:43:52.101Z,16.03
2023-04-17T11:48:55.408Z,15.92
2023-04-17T11:53:59.646Z,15.83
2023-04-17T11:59:05.133Z,15.80
2023-04-17T12:04:21.216Z,15.74
2023-04-17T12:09:28.273Z,15.66
2023-04-17T12:14:32.443Z,15.67
2023-04-17T12:19:35.862Z,15.56
2023-04-17T12:24:39.265Z,15.46
2023-04-17T12:29:44.726Z,15.42
2023-04-17T12:34:48.925Z,15.31
2023-04-17T12:39:52.297Z,15.16
2023-04-17T12:44:55.774Z,15.09
2023-04-17T12:49:59.365Z,15.03
2023-04-17T12:55:04.152Z,15.02
2023-04-17T13:00:10.959Z,15.01
2023-04-17T13:05:14.240Z,15.04
2023-04-17T13:10:20.510Z,15.09
2023-04-17T13:15:27.005Z,15.12
2023-04-17T13:20:30.388Z,15.25
2023-04-17T13:25:33.850Z,15.35
2023-04-17T13:30:37.835Z,15.40
2023-04-17T13:35:41.573Z,15.40
2023-04-17T13:40:45.122Z,15.37
2023-04-17T13:45:49.835Z,15.31
2023-04-17T13:50:54.598Z,15.23
2023-04-17T13:55:57.806Z,15.17
2023-04-17T14:01:01.078Z,15.18
2023-04-17T14:06:07.238Z,15.20
2023-04-17T14:11:11.098Z,15.25
2023-04-17T14:16:19.181Z,15.30
2023-04-17T14:21:22.695Z,15.29
2023-04-17T14:26:28.715Z,15.30
2023-04-17T14:31:32.269Z,15.20
2023-04-17T14:36:35.980Z,15.11
2023-04-17T14:41:39.570Z,15.02
2023-04-17T14:46:43.434Z,14.96
2023-04-17T14:51:46.951Z,14.94
2023-04-17T14:56:50.736Z,14.94
2023-04-17T15:01:54.457Z,14.88
2023-04-17T15:07:10.153Z,14.87
2023-04-17T15:12:13.644Z,14.90
2023-04-17T15:17:17.299Z,14.94
2023-04-17T15:22:20.766Z,14.88
2023-04-17T15:27:24.677Z,14.79
2023-04-17T15:32:28.062Z,14.76
2023-04-17T15:37:31.301Z,14.70
2023-04-17T15:42:36.947Z,14.57
2023-04-17T15:47:40.572Z,14.47
2023-04-17T15:52:44.640Z,14.43
2023-04-17T15:57:48.042Z,14.39
2023-04-17T16:02:52.148Z,14.35
2023-04-17T16:07:55.941Z,14.30
2023-04-17T16:12:59.183Z,14.33
2023-04-17T16:18:02.458Z,14.33
2023-04-17T16:23:05.916Z,14.31
2023-04-17T16:28:09.249Z,14.29
2023-04-17T16:33:12.745Z,14.23
2023-04-17T16:38:16.265Z,14.14
2023-04-17T16:43:19.817Z,14.05
2023-04-17T16:48:23.298Z,13.96
2023-04-17T16:53:26.669Z,13.87
2023-04-17T16:58:30.079Z,13.75
2023-04-17T17:03:33.953Z,13.66
2023-04-17T17:08:37.164Z,13.57
2023-04-17T17:13:50.394Z,13.48
2023-04-17T17:18:54.541Z,13.42
2023-04-17T17:23:58.988Z,13.37
2023-04-17T17:29:02.597Z,13.27
2023-04-17T17:34:22.508Z,13.20
2023-04-17T17:39:29.265Z,13.10
2023-04-17T17:44:32.855Z,13.01
2023-04-17T17:49:36.193Z,12.91
2023-04-17T17:54:39.889Z,12.84
2023-04-17T17:59:44.047Z,12.78
2023-04-17T18:04:47.531Z,12.70
2023-04-17T18:09:56.709Z,12.60
2023-04-17T18:15:00.191Z,12.55
2023-04-17T18:20:03.849Z,12.49
2023-04-17T18:25:27.748Z,12.44
2023-04-17T18:30:31.673Z,12.40
2023-04-17T18:35:35.596Z,12.36
2023-04-17T18:40:39.378Z,12.33
2023-04-17T18:45:42.981Z,12.30
2023-04-17T18:50:46.833Z,12.20
2023-04-17T18:55:59.444Z,12.13
2023-04-17T19:01:05.395Z,12.09
2023-04-17T19:06:12.629Z,12.04
2023-04-17T19:11:16.211Z,12.01
2023-04-17T19:16:19.534Z,11.99
2023-04-17T19:21:23.223Z,11.95
2023-04-17T19:26:26.907Z,11.93
2023-04-17T19:31:31.882Z,11.85
2023-04-17T19:36:36.027Z,11.77
2023-04-17T19:41:40.236Z,11.72
2023-04-17T19:46:43.482Z,11.66
2023-04-17T19:51:46.615Z,11.63
2023-04-17T19:57:10.380Z,11.60
2023-04-17T20:02:14.078Z,11.60
2023-04-17T20:13:13.853Z,11.58
2023-04-17T20:18:17.920Z,11.54
2023-04-17T20:23:21.886Z,11.47
2023-04-17T20:28:25.103Z,11.41
2023-04-17T20:34:02.864Z,11.34
2023-04-17T20:39:12.942Z,11.30
2023-04-17T20:44:16.625Z,11.28
2023-04-17T20:49:20.141Z,11.28
2023-04-17T20:54:26.390Z,11.23
2023-04-17T20:59:37.371Z,11.19
2023-04-17T21:04:40.928Z,11.13
2023-04-17T21:09:44.172Z,11.10
2023-04-17T21:14:47.431Z,11.08
2023-04-17T21:20:21.764Z,11.07
2023-04-17T21:26:36.740Z,11.04
2023-04-17T21:32:07.235Z,11.00
2023-04-17T21:37:36.203Z,10.95
2023-04-17T21:42:42.861Z,10.93
2023-04-17T21:47:46.325Z,10.90
2023-04-17T21:52:50.178Z,10.87
2023-04-17T21:57:53.484Z,10.84
2023-04-17T22:02:56.946Z,10.77
2023-04-17T22:08:01.532Z,10.70
2023-04-17T22:13:05.544Z,10.68
2023-04-17T22:18:09.035Z,10.64
2023-04-17T22:23:12.521Z,10.55
2023-04-17T22:28:16.507Z,10.50
2023-04-17T22:33:39.920Z,10.44
2023-04-17T22:39:03.816Z,10.37
2023-04-17T22:44:07.326Z,10.25
2023-04-17T22:49:10.613Z,10.16
2023-04-17T22:54:22.149Z,10.08
2023-04-17T22:59:26.966Z,10.00
2023-04-17T23:04:53.265Z,9.95
2023-04-17T23:10:38.852Z,9.92
2023-04-17T23:15:42.850Z,9.87
2023-04-17T23:21:06.628Z,9.80
2023-04-17T23:26:20.131Z,9.76
2023-04-17T23:31:23.656Z,9.71
2023-04-17T23:36:27.088Z,9.72
2023-04-17T23:42:11.085Z,9.73
2023-04-17T23:47:14.442Z,9.71
2023-04-17T23:52:19.471Z,9.72
2023-04-17T23:57:22.832Z,9.70
